Time;durP1;ratioP1;P1;durP2;ratioP2;P2;SDS_P1;SDS_P2;PMS_P1;PMS_P2;Temp;Humidity;BMP_temperature;BMP_pressure;BME280_temperature;BME280_humidity;BME280_pressure;Samples;Min_cycle;Max_cycle;Signal;HPM_P1;HPM_P2
2022/01/08 00:00:34;;;;;;;0.43;0.43;;;;;;;0.78;100.00;99922.28;5071826;28;20171;-76
2022/01/08 00:02:59;;;;;;;0.00;0.00;;;;;;;0.79;100.00;99916.63;5072143;28;20710;-76
2022/01/08 00:05:25;;;;;;;0.30;0.30;;;;;;;0.83;100.00;99931.16;5075154;28;20205;-77
2022/01/08 00:07:50;;;;;;;0.10;0.10;;;;;;;0.84;100.00;99931.97;5086625;28;20171;-77
2022/01/08 00:10:16;;;;;;;3.30;0.90;;;;;;;0.82;100.00;99926.88;5071224;28;20211;-77
2022/01/08 00:12:42;;;;;;;0.37;0.30;;;;;;;0.87;100.00;99934.16;5071282;28;20532;-77
2022/01/08 00:15:09;;;;;;;0.50;0.30;;;;;;;0.91;100.00;99935.25;5071201;28;20652;-76
2022/01/08 00:17:35;;;;;;;6.83;2.07;;;;;;;0.92;100.00;99938.75;5070926;28;20676;-77
2022/01/08 00:20:01;;;;;;;0.50;0.50;;;;;;;0.94;100.00;99926.66;5071155;28;20424;-77
2022/01/08 00:22:26;;;;;;;0.50;0.50;;;;;;;0.94;100.00;99934.75;5071022;28;20472;-77
2022/01/08 00:24:54;;;;;;;1.30;0.93;;;;;;;0.94;100.00;99923.97;5071064;28;20174;-77
2022/01/08 00:27:21;;;;;;;1.07;0.97;;;;;;;0.93;100.00;99933.13;5071128;28;20178;-77
2022/01/08 00:29:46;;;;;;;0.43;0.43;;;;;;;0.91;100.00;99929.06;5071097;28;20508;-77
2022/01/08 00:32:13;;;;;;;0.60;0.60;;;;;;;0.92;100.00;99928.00;5069691;28;21052;-77
2022/01/08 00:34:38;;;;;;;0.13;0.13;;;;;;;0.93;100.00;99927.75;5070934;28;20244;-77
2022/01/08 00:37:06;;;;;;;0.70;0.70;;;;;;;0.96;100.00;99927.22;5070841;28;20925;-77
2022/01/08 00:39:31;;;;;;;1.03;0.87;;;;;;;0.96;100.00;99931.78;5070543;28;20744;-76
2022/01/08 00:41:56;;;;;;;0.93;0.93;;;;;;;0.96;100.00;99929.91;5070908;28;20505;-77
2022/01/08 00:44:22;;;;;;;0.83;0.83;;;;;;;0.94;100.00;99932.03;5070903;28;20253;-76
2022/01/08 00:46:47;;;;;;;1.60;1.50;;;;;;;0.96;100.00;99929.09;5070779;28;20205;-76
2022/01/08 00:49:13;;;;;;;3.40;2.00;;;;;;;0.77;100.00;99920.66;5070834;28;20206;-77
2022/01/08 00:51:38;;;;;;;1.70;1.60;;;;;;;0.75;100.00;99930.88;5070803;28;20193;-77
2022/01/08 00:54:03;;;;;;;1.93;1.77;;;;;;;0.66;100.00;99917.09;5071011;28;20691;-78
2022/01/08 00:56:28;;;;;;;1.50;1.40;;;;;;;0.80;100.00;99926.31;5069226;28;20178;-77
2022/01/08 00:58:54;;;;;;;4.53;2.63;;;;;;;0.64;100.00;99926.47;5069314;28;20202;-77
2022/01/08 01:01:20;;;;;;;2.10;1.87;;;;;;;0.64;100.00;99923.78;5070634;28;20174;-77
2022/01/08 01:03:45;;;;;;;1.73;1.63;;;;;;;0.59;100.00;99921.88;5070533;28;20717;-77
2022/01/08 01:06:11;;;;;;;2.20;2.00;;;;;;;0.66;100.00;99916.28;5070443;28;20270;-76
2022/01/08 01:08:36;;;;;;;2.33;2.10;;;;;;;0.58;100.00;99925.66;5070644;28;20174;-77
2022/01/08 01:11:01;;;;;;;3.10;2.40;;;;;;;0.51;100.00;99925.84;5070590;28;20179;-76
2022/01/08 01:13:27;;;;;;;2.80;2.60;;;;;;;0.50;100.00;99926.94;5070578;28;20178;-76
2022/01/08 01:15:52;;;;;;;4.23;1.87;;;;;;;0.68;100.00;99933.75;5068692;28;20263;-76
2022/01/08 01:18:18;;;;;;;3.07;2.50;;;;;;;0.66;100.00;99929.72;5070438;28;20197;-76
2022/01/08 01:20:43;;;;;;;2.60;2.33;;;;;;;0.73;100.00;99925.75;5070486;28;20175;-76
2022/01/08 01:23:15;;;;;;;2.73;2.53;;;;;;;0.75;100.00;99918.22;5070109;28;20269;-77
2022/01/08 01:25:54;;;;;;;3.00;2.70;;;;;;;0.75;100.00;99917.44;5070340;28;20645;-76
2022/01/08 01:47:02;;;;;;;2.63;2.40;;;;;;;1.11;100.00;99926.47;5070477;28;20178;-76
2022/01/08 01:49:30;;;;;;;3.17;2.77;;;;;;;1.09;100.00;99928.63;5069031;28;20183;-77
2022/01/08 01:51:55;;;;;;;2.70;2.50;;;;;;;1.15;100.00;99932.94;5072596;28;20235;-76
2022/01/08 01:54:21;;;;;;;2.43;2.10;;;;;;;1.18;100.00;99921.69;5074018;28;20266;-76
2022/01/08 01:56:46;;;;;;;2.30;2.10;;;;;;;1.23;100.00;99923.59;5072490;28;20178;-76
2022/01/08 01:59:13;;;;;;;3.03;2.73;;;;;;;1.22;100.00;99919.28;5073960;28;20217;-76
2022/01/08 02:01:38;;;;;;;3.23;2.73;;;;;;;1.21;100.00;99923.03;5073912;28;20212;-76
2022/01/08 02:04:04;;;;;;;2.10;1.90;;;;;;;1.20;100.00;99919.53;5073868;28;20210;-76
2022/01/08 02:06:29;;;;;;;1.20;1.20;;;;;;;1.13;100.00;99918.97;5074002;28;20178;-76
2022/01/08 02:08:54;;;;;;;2.07;1.97;;;;;;;1.11;100.00;99910.34;5072487;28;20175;-77
2022/01/08 02:11:20;;;;;;;2.60;2.40;;;;;;;1.12;100.00;99915.47;5074089;28;20228;-76
2022/01/08 02:13:46;;;;;;;2.60;2.40;;;;;;;1.10;100.00;99922.19;5072407;28;20191;-76
2022/01/08 02:16:17;;;;;;;1.37;1.23;;;;;;;1.09;100.00;99918.69;5073087;28;20440;-76
2022/01/08 02:18:46;;;;;;;2.63;1.80;;;;;;;1.08;100.00;99913.56;5073642;28;20221;-77
2022/01/08 02:21:12;;;;;;;1.67;1.57;;;;;;;1.09;100.00;99924.06;5073761;28;20415;-76
2022/01/08 02:23:39;;;;;;;2.07;1.73;;;;;;;1.08;100.00;99925.13;5073360;28;20456;-77
2022/01/08 02:26:06;;;;;;;2.80;1.90;;;;;;;1.07;100.00;99912.75;5073394;28;20315;-76
2022/01/08 02:28:32;;;;;;;1.73;1.63;;;;;;;1.07;100.00;99914.63;5073559;28;20444;-76
2022/01/08 02:30:57;;;;;;;1.63;1.53;;;;;;;1.05;100.00;99906.03;5073523;28;20448;-76
2022/01/08 02:33:24;;;;;;;0.67;0.67;;;;;;;1.05;100.00;99911.41;5073478;28;21093;-76
2022/01/08 02:35:50;;;;;;;2.73;2.53;;;;;;;1.04;100.00;99909.78;5073101;28;20193;-76
2022/01/08 02:38:15;;;;;;;2.47;2.27;;;;;;;1.05;100.00;99920.28;5073285;28;20654;-76
2022/01/08 02:40:49;;;;;;;2.30;1.90;;;;;;;1.05;100.00;99908.72;5073321;28;20178;-75
2022/01/08 02:43:15;;;;;;;2.97;2.77;;;;;;;1.05;100.00;99912.22;5073211;28;20456;-76
2022/01/08 02:45:40;;;;;;;3.90;2.67;;;;;;;1.07;100.00;99915.44;5072982;28;20181;-76
2022/01/08 02:48:05;;;;;;;2.83;1.53;;;;;;;1.09;100.00;99917.88;5073188;28;20205;-76
2022/01/08 02:50:31;;;;;;;0.17;0.17;;;;;;;1.10;100.00;99924.88;5073768;28;20217;-77
2022/01/08 02:52:56;;;;;;;6.40;3.47;;;;;;;1.11;100.00;99919.22;5073124;28;20627;-76
2022/01/08 02:55:22;;;;;;;2.93;2.37;;;;;;;1.13;100.00;99917.06;5072753;28;20167;-76
2022/01/08 02:57:47;;;;;;;1.77;1.67;;;;;;;1.12;100.00;99915.47;5072891;28;20201;-76
2022/01/08 03:00:16;;;;;;;1.57;1.47;;;;;;;1.13;100.00;99914.38;5072918;28;20197;-76
2022/01/08 03:02:48;;;;;;;3.73;3.00;;;;;;;1.14;100.00;99918.69;5072679;28;20257;-76
2022/01/08 03:05:14;;;;;;;1.87;1.77;;;;;;;1.15;100.00;99917.63;5072704;28;20170;-76
2022/01/08 03:07:41;;;;;;;4.07;3.67;;;;;;;1.17;100.00;99906.63;5072846;28;20274;-76
2022/01/08 03:10:08;;;;;;;1.67;1.57;;;;;;;1.19;100.00;99910.66;5072791;28;20424;-78
2022/01/08 03:12:38;;;;;;;3.07;2.60;;;;;;;1.20;100.00;99903.41;5071264;28;20423;-77
2022/01/08 03:15:05;;;;;;;2.37;2.17;;;;;;;1.22;100.00;99905.81;5072529;28;20461;-76
2022/01/08 03:17:30;;;;;;;2.40;2.20;;;;;;;1.17;100.00;99902.06;5070887;28;21163;-76
2022/01/08 03:20:02;;;;;;;0.83;0.83;;;;;;;1.15;100.00;99903.34;5071248;28;20469;-76
2022/01/08 03:22:28;;;;;;;2.33;1.70;;;;;;;1.14;100.00;99905.25;5072493;28;20191;-76
2022/01/08 03:24:54;;;;;;;2.00;1.80;;;;;;;1.14;100.00;99923.25;5072344;28;20436;-77
2022/01/08 03:27:19;;;;;;;5.27;3.93;;;;;;;1.16;100.00;99919.25;5072277;28;20447;-76
2022/01/08 03:29:44;;;;;;;1.20;1.20;;;;;;;1.18;100.00;99922.50;5072375;28;20546;-76
2022/01/08 03:32:10;;;;;;;1.17;1.10;;;;;;;1.21;100.00;99917.66;5072370;28;20171;-75
2022/01/08 03:34:35;;;;;;;2.53;2.13;;;;;;;1.22;100.00;99919.28;5072179;28;20261;-76
2022/01/08 03:37:01;;;;;;;2.47;2.27;;;;;;;1.21;100.00;99923.03;5072092;28;20174;-76
2022/01/08 03:39:26;;;;;;;2.83;2.63;;;;;;;1.23;100.00;99931.66;5070827;28;20214;-76
2022/01/08 03:41:52;;;;;;;2.57;2.40;;;;;;;1.22;100.00;99930.03;5070796;28;20269;-75
2022/01/08 03:44:18;;;;;;;4.23;3.83;;;;;;;1.22;100.00;99933.53;5070781;28;20604;-75
2022/01/08 03:46:44;;;;;;;1.63;1.60;;;;;;;1.21;100.00;99929.22;5070454;28;20455;-76
2022/01/08 03:49:25;;;;;;;2.43;2.27;;;;;;;1.23;100.00;99937.84;5071908;28;20231;-76
2022/01/08 03:51:53;;;;;;;5.00;3.90;;;;;;;1.23;100.00;99937.03;5071846;28;20167;-76
2022/01/08 03:54:19;;;;;;;6.23;5.27;;;;;;;1.24;100.00;99933.28;5071824;28;20182;-76
2022/01/08 03:56:45;;;;;;;6.90;4.07;;;;;;;1.26;100.00;99931.13;5070361;28;20623;-76
2022/01/08 03:59:10;;;;;;;3.63;3.30;;;;;;;1.27;100.00;99932.75;5071649;28;20509;-76
2022/01/08 04:01:35;;;;;;;7.40;4.73;;;;;;;1.24;100.00;99931.38;5070332;28;20178;-78
2022/01/08 04:04:01;;;;;;;3.57;3.30;;;;;;;1.21;100.00;99929.22;5070337;28;20175;-76
2022/01/08 04:06:26;;;;;;;4.50;3.27;;;;;;;1.16;100.00;99913.06;5071550;28;20270;-76
2022/01/08 04:08:56;;;;;;;9.60;4.87;;;;;;;1.10;100.00;99914.09;5070273;28;20189;-78
2022/01/08 04:11:23;;;;;;;2.80;2.63;;;;;;;1.08;100.00;99916.25;5070266;28;20211;-75
2022/01/08 04:13:48;;;;;;;1.77;1.67;;;;;;;1.05;100.00;99911.41;5071778;28;20235;-77
2022/01/08 04:16:18;;;;;;;4.77;4.37;;;;;;;1.03;100.00;99908.97;5074851;28;20623;-76
2022/01/08 04:18:44;;;;;;;8.43;3.27;;;;;;;1.00;100.00;99906.78;5078688;28;20199;-77
2022/01/08 04:21:58;;;;;;;3.17;2.97;;;;;;;1.03;100.00;99900.09;5071806;28;20423;-76
2022/01/08 04:24:09;;;;;;;4.60;4.20;;;;;;;1.03;100.00;99900.09;5071573;28;20532;-76
2022/01/08 04:26:34;;;;;;;8.30;7.03;;;;;;;1.04;100.00;99902.53;5071239;28;20421;-79
2022/01/08 04:29:00;;;;;;;5.83;5.37;;;;;;;1.05;100.00;99914.91;5071170;28;20170;-77
2022/01/08 04:31:26;;;;;;;7.97;5.90;;;;;;;1.04;100.00;99915.16;5071623;28;20838;-76
2022/01/08 04:33:52;;;;;;;9.13;5.23;;;;;;;1.06;100.00;99927.28;5070009;28;20171;-77
2022/01/08 04:36:18;;;;;;;4.90;4.60;;;;;;;1.08;100.00;99924.31;5071082;28;20405;-77
2022/01/08 04:38:43;;;;;;;10.17;6.47;;;;;;;1.07;100.00;99928.91;5069607;28;20518;-77
2022/01/08 04:41:09;;;;;;;5.83;4.83;;;;;;;1.06;100.00;99931.84;5070942;28;20183;-76
2022/01/08 04:43:37;;;;;;;4.83;4.33;;;;;;;1.01;100.00;99927.22;5070969;28;20174;-76
2022/01/08 04:46:02;;;;;;;3.47;3.20;;;;;;;0.99;100.00;99918.63;5069624;28;20178;-77
2022/01/08 04:48:28;;;;;;;4.63;4.03;;;;;;;0.98;100.00;99911.63;5070898;28;20428;-77
2022/01/08 04:50:53;;;;;;;5.23;4.73;;;;;;;0.97;100.00;99914.56;5070870;28;20228;-76
2022/01/08 04:53:18;;;;;;;5.60;3.27;;;;;;;0.97;100.00;99915.38;5069440;28;20183;-76
2022/01/08 04:55:44;;;;;;;4.33;3.27;;;;;;;0.97;100.00;99922.63;5069417;28;20183;-77
2022/01/08 04:58:09;;;;;;;2.53;2.37;;;;;;;0.96;100.00;99926.41;5069427;28;20206;-77
2022/01/08 05:00:37;;;;;;;4.30;4.00;;;;;;;0.94;100.00;99928.53;5069546;28;20213;-77
2022/01/08 05:03:02;;;;;;;3.20;2.90;;;;;;;0.93;100.00;99924.25;5070809;28;20206;-76
2022/01/08 05:05:28;;;;;;;4.20;3.60;;;;;;;0.95;100.00;99930.97;5069268;28;20475;-76
2022/01/08 05:07:53;;;;;;;4.17;3.17;;;;;;;0.96;100.00;99932.59;5069327;28;20723;-76
2022/01/08 05:10:18;;;;;;;3.27;3.03;;;;;;;0.99;100.00;99932.06;5070649;28;20182;-77
2022/01/08 05:12:44;;;;;;;6.87;6.27;;;;;;;0.99;100.00;99934.75;5070676;28;20269;-76
2022/01/08 05:15:10;;;;;;;3.47;3.17;;;;;;;1.00;100.00;99938.25;5069252;28;20277;-76
2022/01/08 05:17:36;;;;;;;3.53;3.40;;;;;;;1.03;100.00;99929.69;5070258;28;20188;-76
2022/01/08 05:20:08;;;;;;;5.77;5.13;;;;;;;1.03;100.00;99933.19;5070442;28;20309;-78
2022/01/08 05:23:06;;;;;;;7.87;6.93;;;;;;;1.03;100.00;99938.56;5070473;28;20178;-76
2022/01/08 05:25:26;;;;;;;3.47;3.17;;;;;;;1.03;100.00;99941.25;5070200;28;20416;-76
2022/01/08 05:27:52;;;;;;;2.53;2.33;;;;;;;1.03;100.00;99941.25;5073261;28;20423;-76
2022/01/08 05:30:19;;;;;;;5.13;4.73;;;;;;;1.02;100.00;99942.31;5073284;28;20451;-75
2022/01/08 05:32:45;;;;;;;3.17;2.27;;;;;;;0.99;100.00;99942.00;5074556;28;20707;-75
2022/01/08 05:35:11;;;;;;;2.90;2.77;;;;;;;0.95;100.00;99941.72;5072909;28;20425;-76
2022/01/08 05:37:36;;;;;;;2.50;2.30;;;;;;;0.88;100.00;99931.22;5074316;28;20626;-76
2022/01/08 05:40:02;;;;;;;3.30;3.10;;;;;;;0.88;100.00;99938.47;5074392;28;20175;-78
2022/01/08 05:42:28;;;;;;;2.63;2.43;;;;;;;0.87;100.00;99951.13;5074167;28;20567;-76
2022/01/08 05:44:53;;;;;;;1.23;1.23;;;;;;;0.83;100.00;99944.63;5074134;28;20171;-76
2022/01/08 05:47:21;;;;;;;4.23;3.97;;;;;;;0.78;100.00;99952.66;5072831;28;20540;-78
2022/01/08 05:49:47;;;;;;;2.50;2.30;;;;;;;0.79;100.00;99958.84;5074093;28;20179;-76
2022/01/08 05:52:12;;;;;;;3.63;3.33;;;;;;;0.77;100.00;99955.59;5074173;28;20777;-76
2022/01/08 05:54:37;;;;;;;3.30;3.10;;;;;;;0.78;100.00;99957.22;5073948;28;20182;-76
2022/01/08 05:57:03;;;;;;;5.00;4.53;;;;;;;0.79;100.00;99961.53;5074027;28;20641;-76
2022/01/08 05:59:28;;;;;;;4.40;3.47;;;;;;;0.77;100.00;99967.16;5072570;28;20234;-75
2022/01/08 06:01:55;;;;;;;5.17;3.93;;;;;;;0.75;100.00;99953.19;5072608;28;20181;-76
2022/01/08 06:04:20;;;;;;;7.60;6.80;;;;;;;0.76;100.00;99965.56;5073948;28;20167;-75
2022/01/08 06:06:46;;;;;;;5.97;5.30;;;;;;;0.75;100.00;99963.13;5073718;28;20443;-76
2022/01/08 06:09:11;;;;;;;6.30;5.77;;;;;;;0.76;100.00;99970.13;5073915;28;20531;-76
2022/01/08 06:11:37;;;;;;;2.97;2.77;;;;;;;0.77;100.00;99977.94;5073835;28;20251;-76
2022/01/08 06:14:04;;;;;;;3.20;2.10;;;;;;;0.81;100.00;99989.78;5073572;28;20202;-76
2022/01/08 06:16:34;;;;;;;2.73;2.53;;;;;;;0.84;100.00;99985.75;5073032;28;20417;-78
2022/01/08 06:19:02;;;;;;;1.27;1.27;;;;;;;0.88;100.00;99992.25;5073470;28;21001;-76
2022/01/08 06:21:28;;;;;;;2.67;2.43;;;;;;;0.89;100.00;100001.94;5072260;28;20428;-75
2022/01/08 06:23:53;;;;;;;9.20;5.97;;;;;;;0.89;100.00;100002.75;5073407;28;20428;-77
2022/01/08 06:26:18;;;;;;;1.77;1.70;;;;;;;0.91;100.00;100013.25;5073241;28;20175;-76
2022/01/08 06:28:44;;;;;;;3.43;3.20;;;;;;;0.90;100.00;100014.31;5073447;28;20210;-76
2022/01/08 06:31:09;;;;;;;4.27;3.93;;;;;;;0.91;100.00;100012.44;5073493;28;20181;-77
2022/01/08 06:33:35;;;;;;;2.13;1.93;;;;;;;0.89;100.00;100015.38;5071968;28;20185;-75
2022/01/08 06:36:00;;;;;;;1.23;1.23;;;;;;;0.86;100.00;100008.63;5072412;28;20171;-76
2022/01/08 06:38:25;;;;;;;2.27;2.17;;;;;;;0.86;100.00;100015.88;5073139;28;20307;-76
2022/01/08 06:40:51;;;;;;;4.83;4.43;;;;;;;0.86;100.00;100018.56;5072996;28;20232;-76
2022/01/08 06:43:16;;;;;;;3.53;3.33;;;;;;;0.84;100.00;100013.44;5073129;28;20694;-77
2022/01/08 06:45:41;;;;;;;5.50;4.67;;;;;;;0.86;100.00;100018.56;5072805;28;20703;-77
2022/01/08 06:48:07;;;;;;;4.07;3.77;;;;;;;0.85;100.00;100015.06;5072775;28;20182;-76
2022/01/08 06:50:32;;;;;;;7.90;4.27;;;;;;;0.88;100.00;100016.47;5072754;28;20180;-79
2022/01/08 06:52:58;;;;;;;3.40;3.10;;;;;;;0.88;100.00;100013.78;5072830;28;20213;-76
2022/01/08 06:55:23;;;;;;;6.67;3.33;;;;;;;0.87;100.00;100023.72;5072411;28;20416;-77
2022/01/08 06:57:49;;;;;;;5.43;4.93;;;;;;;0.84;100.00;100020.72;5071153;28;20202;-78
2022/01/08 07:00:14;;;;;;;2.80;2.60;;;;;;;0.83;100.00;100019.91;5071285;28;20183;-76
2022/01/08 07:02:40;;;;;;;5.23;4.13;;;;;;;0.81;100.00;100023.91;5071212;28;20171;-76
2022/01/08 07:05:05;;;;;;;3.30;3.07;;;;;;;0.81;100.00;100023.91;5071132;28;20339;-76
2022/01/08 07:07:31;;;;;;;0.87;0.83;;;;;;;0.83;100.00;100041.41;5071306;28;20170;-76
2022/01/08 07:09:56;;;;;;;10.40;4.87;;;;;;;0.83;100.00;100043.28;5072376;28;20183;-76
2022/01/08 07:12:21;;;;;;;3.07;2.73;;;;;;;0.85;100.00;100049.22;5071011;28;20277;-78
2022/01/08 07:14:47;;;;;;;5.17;4.77;;;;;;;0.85;100.00;100035.78;5072081;28;20221;-77
2022/01/08 07:17:12;;;;;;;4.07;3.03;;;;;;;0.86;100.00;100040.09;5070970;28;20505;-77
2022/01/08 07:19:37;;;;;;;7.77;6.87;;;;;;;0.86;100.00;100045.47;5070772;28;20249;-76
2022/01/08 07:22:03;;;;;;;8.30;4.57;;;;;;;0.85;100.00;100051.91;5070912;28;20179;-76
2022/01/08 07:24:28;;;;;;;4.73;4.30;;;;;;;0.88;100.00;100054.09;5071998;28;20214;-76
2022/01/08 07:26:54;;;;;;;5.30;4.90;;;;;;;0.87;100.00;100060.56;5072027;28;20649;-76
2022/01/08 07:29:19;;;;;;;2.37;1.97;;;;;;;0.84;100.00;100059.16;5072217;28;20646;-76
2022/01/08 07:31:44;;;;;;;2.53;2.33;;;;;;;0.84;100.00;100055.66;5072246;28;20182;-76
2022/01/08 07:34:10;;;;;;;2.83;2.63;;;;;;;0.83;100.00;100060.22;5070516;28;20180;-76
2022/01/08 07:36:35;;;;;;;3.87;3.67;;;;;;;0.82;100.00;100055.13;5068950;28;20184;-76
2022/01/08 07:39:00;;;;;;;3.03;2.83;;;;;;;0.80;100.00;100052.69;5075400;28;20202;-75
2022/01/08 07:41:26;;;;;;;11.80;9.00;;;;;;;0.79;100.00;100051.06;5081847;28;20421;-75
2022/01/08 07:43:51;;;;;;;3.50;2.67;;;;;;;0.78;100.00;100049.44;5074144;28;20459;-76
2022/01/08 07:46:16;;;;;;;8.10;4.80;;;;;;;0.79;100.00;100050.25;5072005;28;20170;-75
2022/01/08 07:48:43;;;;;;;5.70;4.60;;;;;;;0.75;100.00;100038.41;5070870;28;20179;-75
2022/01/08 07:51:09;;;;;;;11.63;4.47;;;;;;;0.74;100.00;100044.84;5071775;28;20166;-75
2022/01/08 07:53:34;;;;;;;8.00;6.13;;;;;;;0.73;100.00;100045.91;5070233;28;20474;-75
2022/01/08 07:55:59;;;;;;;2.53;1.93;;;;;;;0.73;100.00;100053.97;5070266;28;20225;-75
2022/01/08 07:58:25;;;;;;;2.57;1.63;;;;;;;0.76;100.00;100040.84;5071536;28;20202;-75
2022/01/08 08:00:51;;;;;;;5.03;3.53;;;;;;;0.80;100.00;100059.94;5071600;28;20618;-75
2022/01/08 08:03:18;;;;;;;2.63;2.43;;;;;;;0.82;100.00;100049.75;5071858;28;20223;-75
2022/01/08 08:05:44;;;;;;;3.87;3.60;;;;;;;0.80;100.00;100043.81;5071693;28;20429;-75
2022/01/08 08:08:09;;;;;;;6.23;3.83;;;;;;;0.78;100.00;100046.75;5071388;28;20409;-75
2022/01/08 08:10:34;;;;;;;7.47;5.90;;;;;;;0.79;100.00;100051.06;5070280;28;20166;-74
2022/01/08 08:13:00;;;;;;;3.03;2.93;;;;;;;0.78;100.00;100036.00;5070303;28;20179;-75
2022/01/08 08:15:26;;;;;;;3.70;1.90;;;;;;;0.78;100.00;100033.31;5071303;28;20254;-75
2022/01/08 08:17:53;;;;;;;4.60;4.20;;;;;;;0.78;100.00;100032.50;5071048;28;20198;-75
2022/01/08 08:20:18;;;;;;;2.63;2.53;;;;;;;0.77;100.00;100025.50;5070140;28;20179;-74
2022/01/08 08:22:44;;;;;;;2.57;2.37;;;;;;;0.76;100.00;100026.56;5071235;28;20922;-75
2022/01/08 08:25:11;;;;;;;2.67;2.47;;;;;;;0.78;100.00;100016.38;5071122;28;20221;-78
2022/01/08 08:27:39;;;;;;;2.87;2.23;;;;;;;0.78;100.00;100021.75;5071310;28;20170;-75
2022/01/08 08:30:06;;;;;;;4.13;3.73;;;;;;;0.80;100.00;100014.22;5071134;28;20756;-75
2022/01/08 08:32:31;;;;;;;5.43;5.03;;;;;;;0.82;100.00;100033.59;5069386;28;20467;-75
2022/01/08 08:34:56;;;;;;;1.97;1.87;;;;;;;0.84;100.00;100039.53;5069600;28;20445;-75
2022/01/08 08:37:22;;;;;;;3.30;3.10;;;;;;;0.85;100.00;100033.91;5069767;28;20178;-75
2022/01/08 08:39:47;;;;;;;3.27;3.07;;;;;;;0.88;100.00;100040.66;5069712;28;20670;-76
2022/01/08 08:42:13;;;;;;;2.53;2.10;;;;;;;0.88;100.00;100035.28;5070988;28;20170;-74
2022/01/08 08:44:38;;;;;;;10.93;6.03;;;;;;;0.86;100.00;100032.81;5070838;28;20213;-75
2022/01/08 08:47:04;;;;;;;3.03;2.40;;;;;;;0.88;100.00;100037.97;5070804;28;20527;-76
2022/01/08 08:49:30;;;;;;;1.20;1.20;;;;;;;0.89;100.00;100029.66;5070927;28;20243;-75
2022/01/08 08:51:55;;;;;;;16.67;3.70;;;;;;;0.92;100.00;100036.38;5069768;28;20181;-75
2022/01/08 08:54:21;;;;;;;11.13;6.20;;;;;;;0.92;100.00;100035.56;5069441;28;20175;-75
2022/01/08 08:56:46;;;;;;;7.60;2.37;;;;;;;0.91;100.00;100037.44;5069646;28;20661;-75
2022/01/08 08:59:11;;;;;;;4.10;2.60;;;;;;;0.93;100.00;100027.25;5069114;28;20206;-77
2022/01/08 09:01:37;;;;;;;5.03;4.53;;;;;;;0.97;100.00;100030.22;5069419;28;20606;-77
2022/01/08 09:04:03;;;;;;;4.43;4.13;;;;;;;0.99;100.00;100028.06;5069432;28;20174;-75
2022/01/08 09:06:30;;;;;;;2.70;2.50;;;;;;;1.01;100.00;100032.13;5070528;28;20171;-75
2022/01/08 09:08:55;;;;;;;3.73;3.53;;;;;;;1.05;100.00;100037.81;5069189;28;20174;-75
2022/01/08 09:11:21;;;;;;;0.70;0.70;;;;;;;1.03;100.00;100030.00;5070752;28;20171;-74
2022/01/08 09:13:47;;;;;;;2.50;2.40;;;;;;;1.03;100.00;100038.09;5070628;28;20170;-75
2022/01/08 09:16:12;;;;;;;10.60;7.97;;;;;;;1.05;100.00;100032.44;5068927;28;20407;-75
2022/01/08 09:18:41;;;;;;;4.53;3.97;;;;;;;1.06;100.00;100040.25;5069270;28;20201;-77
2022/01/08 09:21:06;;;;;;;12.73;3.33;;;;;;;1.08;100.00;100048.06;5069339;28;20741;-77
2022/01/08 09:23:33;;;;;;;2.67;2.27;;;;;;;1.12;100.00;100043.78;5068870;28;20277;-78
2022/01/08 09:25:59;;;;;;;5.50;3.40;;;;;;;1.15;100.00;100038.69;5070165;28;20631;-77
2022/01/08 09:28:26;;;;;;;7.17;5.87;;;;;;;1.15;100.00;100052.13;5068611;28;20444;-77
2022/01/08 09:30:51;;;;;;;22.50;6.17;;;;;;;1.13;100.00;100046.19;5070519;28;20192;-76
2022/01/08 09:33:17;;;;;;;1.30;1.30;;;;;;;1.13;100.00;100051.56;5070262;28;20916;-75
2022/01/08 09:35:42;;;;;;;3.33;3.03;;;;;;;1.12;100.00;100041.88;5069003;28;20171;-75
2022/01/08 09:38:07;;;;;;;5.50;4.53;;;;;;;1.12;100.00;100055.34;5070458;28;20202;-75
2022/01/08 09:40:33;;;;;;;2.50;2.30;;;;;;;1.12;100.00;100039.19;5069077;28;20182;-74
2022/01/08 09:42:58;;;;;;;3.77;3.40;;;;;;;1.13;100.00;100040.00;5068592;28;20189;-75
2022/01/08 09:45:24;;;;;;;5.57;2.87;;;;;;;1.14;100.00;100033.56;5068455;28;20190;-76
2022/01/08 09:47:49;;;;;;;5.97;5.57;;;;;;;1.15;100.00;100033.28;5068752;28;20174;-76
2022/01/08 09:50:15;;;;;;;8.00;5.80;;;;;;;1.20;100.00;100027.16;5068823;28;20175;-74
2022/01/08 09:52:40;;;;;;;2.57;2.40;;;;;;;1.25;100.00;100031.75;5069964;28;20174;-74
2022/01/08 09:55:06;;;;;;;4.70;4.37;;;;;;;1.32;100.00;100033.16;5068387;28;20181;-75
2022/01/08 09:57:32;;;;;;;3.20;2.57;;;;;;;1.36;100.00;100028.06;5068421;28;20669;-75
2022/01/08 09:59:58;;;;;;;1.63;1.53;;;;;;;1.40;100.00;100023.75;5068507;28;20417;-74
2022/01/08 10:02:24;;;;;;;3.23;2.63;;;;;;;1.41;100.00;100025.38;5069003;28;20546;-81
2022/01/08 10:04:50;;;;;;;6.93;6.00;;;;;;;1.39;100.00;100025.66;5068566;28;20205;-74
2022/01/08 10:07:21;;;;;;;1.53;1.43;;;;;;;1.43;100.00;100031.31;5070260;28;20516;-75
2022/01/08 10:10:01;;;;;;;3.80;3.13;;;;;;;1.39;100.00;100031.03;5068714;28;20273;-75
2022/01/08 10:12:43;;;;;;;2.90;1.60;;;;;;;1.43;100.00;100042.06;5072680;28;20423;-74
2022/01/08 10:17:55;;;;;;;4.27;3.63;;;;;;;1.51;100.00;100024.63;5073526;28;20458;-75
2022/01/08 10:20:31;;;;;;;9.10;5.63;;;;;;;1.48;100.00;100029.47;5072175;28;20431;-74
2022/01/08 10:23:20;;;;;;;4.87;3.30;;;;;;;1.48;100.00;100028.66;5073187;28;20189;-76
2022/01/08 10:25:56;;;;;;;4.17;3.77;;;;;;;1.49;100.00;100022.22;5073308;28;20421;-74
2022/01/08 10:28:36;;;;;;;1.80;1.70;;;;;;;1.49;100.00;100030.28;5071898;28;20460;-74
2022/01/08 10:31:21;;;;;;;6.63;4.00;;;;;;;1.49;100.00;100023.00;5073272;28;20249;-76
2022/01/08 10:33:49;;;;;;;23.17;6.50;;;;;;;1.52;100.00;100026.25;5071422;28;20451;-76
2022/01/08 10:36:19;;;;;;;3.53;3.17;;;;;;;1.54;100.00;100019.53;5073085;28;20166;-74
2022/01/08 10:38:50;;;;;;;1.27;0.97;;;;;;;1.63;100.00;100017.16;5073244;28;20525;-74
2022/01/08 10:41:16;;;;;;;6.47;4.23;;;;;;;1.70;100.00;100021.22;5073105;28;20416;-75
2022/01/08 10:43:41;;;;;;;4.60;1.87;;;;;;;1.74;100.00;100024.22;5072989;28;20536;-74
2022/01/08 10:46:16;;;;;;;6.60;3.10;;;;;;;1.78;100.00;100014.53;5071590;28;20650;-74
2022/01/08 10:48:52;;;;;;;2.33;2.20;;;;;;;1.75;100.00;100013.16;5071824;28;20180;-74
2022/01/08 10:51:20;;;;;;;6.00;4.23;;;;;;;1.77;100.00;99994.88;5072954;28;20634;-74
2022/01/08 10:53:54;;;;;;;4.53;3.17;;;;;;;1.80;100.00;100006.97;5072870;28;20425;-75
2022/01/08 10:56:40;;;;;;;12.50;6.17;;;;;;;1.84;100.00;100010.75;5072907;28;20412;-74
2022/01/08 10:59:11;;;;;;;3.13;2.17;;;;;;;1.89;100.00;99999.22;5072692;28;20739;-74
2022/01/08 11:01:41;;;;;;;8.77;6.67;;;;;;;1.96;100.00;99997.88;5072953;28;20224;-75
2022/01/08 11:04:08;;;;;;;11.77;2.83;;;;;;;1.97;100.00;99996.00;5071434;28;20185;-74
2022/01/08 11:06:52;;;;;;;1.83;1.73;;;;;;;1.99;100.00;99988.44;5071235;28;20262;-74
2022/01/08 11:09:17;;;;;;;2.90;2.67;;;;;;;2.07;100.00;99982.56;5072846;28;20179;-74
2022/01/08 11:11:43;;;;;;;2.73;1.63;;;;;;;2.18;100.00;99988.78;5071176;28;20232;-74
2022/01/08 11:14:22;;;;;;;6.80;6.10;;;;;;;2.24;100.00;99995.78;5073500;28;20197;-75
2022/01/08 11:16:53;;;;;;;9.30;5.70;;;;;;;2.25;100.00;99986.63;5075851;28;20237;-75
2022/01/08 11:19:19;;;;;;;2.83;2.63;;;;;;;2.24;100.00;99985.00;5077274;28;20296;-75
2022/01/08 11:21:49;;;;;;;7.10;2.00;;;;;;;2.31;100.00;99985.53;5072702;28;20179;-75
2022/01/08 11:24:17;;;;;;;5.73;4.60;;;;;;;2.26;100.00;99980.94;5070873;28;20193;-74
2022/01/08 11:26:44;;;;;;;2.57;2.37;;;;;;;2.29;100.00;99976.91;5072013;28;20293;-75
2022/01/08 11:29:10;;;;;;;6.10;3.47;;;;;;;2.27;100.00;99979.88;5072602;28;20166;-75
2022/01/08 11:31:37;;;;;;;5.93;4.23;;;;;;;2.26;100.00;99963.97;5071711;28;20177;-75
2022/01/08 11:34:08;;;;;;;4.20;3.93;;;;;;;2.34;100.00;99960.75;5071916;28;20188;-75
2022/01/08 11:36:34;;;;;;;2.53;2.37;;;;;;;2.38;100.00;99965.34;5071151;28;20206;-74
2022/01/08 11:39:00;;;;;;;1.07;0.97;;;;;;;2.38;100.00;99965.34;5072108;28;20202;-73
2022/01/08 11:41:26;;;;;;;2.90;2.37;;;;;;;2.36;100.00;99962.09;5072129;28;20186;-73
2022/01/08 11:43:53;;;;;;;3.33;3.03;;;;;;;2.30;100.00;99951.56;5071703;28;20800;-73
2022/01/08 11:46:19;;;;;;;3.00;2.10;;;;;;;2.29;100.00;99949.97;5071828;28;20662;-73
2022/01/08 11:48:47;;;;;;;7.70;3.87;;;;;;;2.26;100.00;99945.09;5070718;28;20189;-73